Time,TemperatureF,DewpointF,PressureIn,WindDirection,WindDirectionDegrees,WindSpeedMPH,WindSpeedGustMPH,Humidity,HourlyPrecipIn,Conditions,Clouds,dailyrainin,SoftwareType,DateUTC
2013-01-20 06:00:00,20.0,-35.0,-100.00,West,263,12.0,18.0,6,-99.99,,,-99.99,,2013-01-20 13:00:00,
2013-01-20 06:43:00,20.0,-35.0,-100.00,West,263,12.0,18.0,6,-99.99,,,-99.99,,2013-01-20 13:43:00,
2013-01-20 06:53:00,20.0,-35.0,-100.00,West,263,12.0,18.0,6,-99.99,,,-99.99,,2013-01-20 13:53:00,
2013-01-20 07:00:00,21.0,-39.0,-100.00,WNW,287,11.0,15.0,4,-99.99,,,-99.99,,2013-01-20 14:00:00,
2013-01-20 07:43:00,21.0,-39.0,-100.00,WNW,287,11.0,15.0,4,-99.99,,,-99.99,,2013-01-20 14:43:00,
2013-01-20 07:53:00,21.0,-39.0,-100.00,WNW,287,11.0,15.0,4,-99.99,,,-99.99,,2013-01-20 14:53:00,
2013-01-20 08:00:00,21.0,-39.0,-100.00,WNW,284,11.0,13.0,4,-99.99,,,-99.99,,2013-01-20 15:00:00,
2013-01-20 08:43:00,21.0,-39.0,-100.00,WNW,284,11.0,13.0,4,-99.99,,,-99.99,,2013-01-20 15:43:00,
2013-01-20 08:53:00,21.0,-39.0,-100.00,WNW,284,11.0,13.0,4,-99.99,,,-99.99,,2013-01-20 15:53:00,
2013-01-20 09:00:00,22.0,-40.0,-100.00,WNW,292,10.0,12.0,4,-99.99,,,-99.99,,2013-01-20 16:00:00,
2013-01-20 09:43:00,22.0,-40.0,-100.00,WNW,292,10.0,12.0,4,-99.99,,,-99.99,,2013-01-20 16:43:00,
2013-01-20 09:53:00,22.0,-40.0,-100.00,WNW,292,10.0,12.0,4,-99.99,,,-99.99,,2013-01-20 16:53:00,
2013-01-20 10:00:00,22.0,-38.0,-100.00,WNW,303,9.0,11.0,5,-99.99,,,-99.99,,2013-01-20 17:00:00,
2013-01-20 10:43:00,22.0,-38.0,-100.00,WNW,303,9.0,11.0,5,-99.99,,,-99.99,,2013-01-20 17:43:00,
2013-01-20 10:53:00,22.0,-38.0,-100.00,WNW,303,9.0,11.0,5,-99.99,,,-99.99,,2013-01-20 17:53:00,
2013-01-20 11:00:00,21.0,-33.0,-100.00,NW,316,9.0,13.0,7,-99.99,,,-99.99,,2013-01-20 18:00:00,
2013-01-20 11:43:00,21.0,-33.0,-100.00,NW,316,9.0,13.0,7,-99.99,,,-99.99,,2013-01-20 18:43:00,
2013-01-20 11:53:00,21.0,-33.0,-100.00,NW,316,9.0,13.0,7,-99.99,,,-99.99,,2013-01-20 18:53:00,
2013-01-20 12:00:00,21.0,-26.0,-100.00,NW,319,8.0,14.0,10,-99.99,,,-99.99,,2013-01-20 19:00:00,
2013-01-20 12:43:00,21.0,-26.0,-100.00,NW,319,8.0,14.0,10,-99.99,,,-99.99,,2013-01-20 19:43:00,
2013-01-20 12:53:00,21.0,-26.0,-100.00,NW,319,8.0,14.0,10,-99.99,,,-99.99,,2013-01-20 19:53:00,
2013-01-20 13:00:00,22.0,-18.0,-100.00,NW,312,9.0,17.0,15,-99.99,,,-99.99,,2013-01-20 20:00:00,
2013-01-20 13:42:00,22.0,-18.0,-100.00,NW,312,9.0,17.0,15,-99.99,,,-99.99,,2013-01-20 20:42:00,
2013-01-20 13:53:00,22.0,-18.0,-100.00,NW,312,9.0,17.0,15,-99.99,,,-99.99,,2013-01-20 20:53:00,
2013-01-20 14:00:00,23.0,-18.0,-100.00,NW,304,9.0,14.0,14,-99.99,,,-99.99,,2013-01-20 21:00:00,
2013-01-20 14:43:00,23.0,-18.0,-100.00,NW,304,9.0,14.0,14,-99.99,,,-99.99,,2013-01-20 21:43:00,
2013-01-20 14:53:00,23.0,-18.0,-100.00,NW,304,9.0,14.0,14,-99.99,,,-99.99,,2013-01-20 21:53:00,
2013-01-20 15:00:00,23.0,-20.0,-100.00,WNW,301,10.0,16.0,13,-99.99,,,-99.99,,2013-01-20 22:00:00,
2013-01-20 15:43:00,23.0,-20.0,-100.00,WNW,301,10.0,16.0,13,-99.99,,,-99.99,,2013-01-20 22:43:00,
2013-01-20 15:53:00,23.0,-20.0,-100.00,WNW,301,10.0,16.0,13,-99.99,,,-99.99,,2013-01-20 22:53:00,
2013-01-20 16:00:00,21.0,-14.0,-100.00,NW,306,10.0,16.0,19,-99.99,,,-99.99,,2013-01-20 23:00:00,
2013-01-20 16:43:00,21.0,-14.0,-100.00,NW,306,10.0,16.0,19,-99.99,,,-99.99,,2013-01-20 23:43:00,
2013-01-20 16:53:00,21.0,-14.0,-100.00,NW,306,10.0,16.0,19,-99.99,,,-99.99,,2013-01-20 23:53:00,
2013-01-20 17:00:00,20.0,-14.0,-100.00,NNW,337,6.0,12.0,20,-99.99,,,-99.99,,2013-01-21 00:00:00,
2013-01-20 17:43:00,20.0,-14.0,-100.00,NNW,337,6.0,12.0,20,-99.99,,,-99.99,,2013-01-21 00:43:00,
2013-01-20 17:53:00,20.0,-14.0,-100.00,NNW,337,6.0,12.0,20,-99.99,,,-99.99,,2013-01-21 00:53:00,
2013-01-20 18:00:00,18.0,-20.0,-100.00,NNE,20,9.0,15.0,16,-99.99,,,-99.99,,2013-01-21 01:00:00,
2013-01-20 18:43:00,18.0,-20.0,-100.00,NNE,20,9.0,15.0,16,-99.99,,,-99.99,,2013-01-21 01:43:00,
2013-01-20 18:53:00,18.0,-20.0,-100.00,NNE,20,9.0,15.0,16,-99.99,,,-99.99,,2013-01-21 01:53:00,
2013-01-20 19:00:00,20.0,-29.0,-100.00,North,354,7.0,11.0,9,-99.99,,,-99.99,,2013-01-21 02:00:00,
2013-01-20 19:43:00,20.0,-29.0,-100.00,North,354,7.0,11.0,9,-99.99,,,-99.99,,2013-01-21 02:43:00,
2013-01-20 19:53:00,20.0,-29.0,-100.00,North,354,7.0,11.0,9,-99.99,,,-99.99,,2013-01-21 02:53:00,
2013-01-20 20:00:00,19.0,-25.0,-100.00,North,8,10.0,13.0,12,-99.99,,,-99.99,,2013-01-21 03:00:00,
2013-01-20 20:43:00,19.0,-25.0,-100.00,North,8,10.0,13.0,12,-99.99,,,-99.99,,2013-01-21 03:43:00,
2013-01-20 20:53:00,19.0,-25.0,-100.00,North,8,10.0,13.0,12,-99.99,,,-99.99,,2013-01-21 03:53:00,
2013-01-20 21:00:00,18.0,-14.0,-100.00,North,352,12.0,18.0,23,-99.99,,,-99.99,,2013-01-21 04:00:00,
2013-01-20 21:43:00,18.0,-14.0,-100.00,North,352,12.0,18.0,23,-99.99,,,-99.99,,2013-01-21 04:43:00,
2013-01-20 21:53:00,18.0,-14.0,-100.00,North,352,12.0,18.0,23,-99.99,,,-99.99,,2013-01-21 04:53:00,
2013-01-20 22:00:00,17.0,-8.0,-100.00,North,352,13.0,19.0,31,-99.99,,,-99.99,,2013-01-21 05:00:00,
2013-01-20 22:42:00,17.0,-8.0,-100.00,North,352,13.0,19.0,31,-99.99,,,-99.99,,2013-01-21 05:42:00,
2013-01-20 22:53:00,17.0,-8.0,-100.00,North,352,13.0,19.0,31,-99.99,,,-99.99,,2013-01-21 05:53:00,
2013-01-20 23:00:00,15.0,-7.0,-100.00,NNW,346,13.0,20.0,37,-99.99,,,-99.99,,2013-01-21 06:00:00,
2013-01-20 23:43:00,15.0,-7.0,-100.00,NNW,346,13.0,20.0,37,-99.99,,,-99.99,,2013-01-21 06:43:00,
2013-01-20 23:53:00,15.0,-7.0,-100.00,NNW,346,13.0,20.0,37,-99.99,,,-99.99,,2013-01-21 06:53:00,